sensor_id;sensor_type;location;lat;lon;timestamp;P1;durP1;ratioP1;P2;durP2;ratioP2
17361;SDS011;8798;51.938;4.348;2023-04-25T00:01:51;14.13;;;2.33;;
17361;SDS011;8798;51.938;4.348;2023-04-25T00:04:19;9.57;;;2.30;;
17361;SDS011;8798;51.938;4.348;2023-04-25T00:06:50;9.47;;;2.13;;
17361;SDS011;8798;51.938;4.348;2023-04-25T00:09:19;7.73;;;1.73;;
17361;SDS011;8798;51.938;4.348;2023-04-25T00:11:48;8.60;;;2.30;;
17361;SDS011;8798;51.938;4.348;2023-04-25T00:14:19;10.50;;;1.90;;
17361;SDS011;8798;51.938;4.348;2023-04-25T00:16:49;5.50;;;2.10;;
17361;SDS011;8798;51.938;4.348;2023-04-25T00:19:20;11.07;;;2.30;;
17361;SDS011;8798;51.938;4.348;2023-04-25T00:21:51;7.40;;;1.77;;
17361;SDS011;8798;51.938;4.348;2023-04-25T00:24:21;9.27;;;2.17;;
17361;SDS011;8798;51.938;4.348;2023-04-25T00:26:49;10.70;;;2.43;;
17361;SDS011;8798;51.938;4.348;2023-04-25T00:29:22;8.63;;;2.37;;
17361;SDS011;8798;51.938;4.348;2023-04-25T00:31:52;6.77;;;2.00;;
17361;SDS011;8798;51.938;4.348;2023-04-25T00:34:22;7.77;;;1.80;;
17361;SDS011;8798;51.938;4.348;2023-04-25T00:36:52;7.67;;;1.70;;
17361;SDS011;8798;51.938;4.348;2023-04-25T00:39:21;4.27;;;1.60;;
17361;SDS011;8798;51.938;4.348;2023-04-25T00:41:53;6.73;;;1.70;;
17361;SDS011;8798;51.938;4.348;2023-04-25T00:44:22;4.73;;;1.70;;
17361;SDS011;8798;51.938;4.348;2023-04-25T00:46:51;7.83;;;1.97;;
17361;SDS011;8798;51.938;4.348;2023-04-25T00:49:20;5.83;;;1.80;;
17361;SDS011;8798;51.938;4.348;2023-04-25T00:51:54;9.13;;;1.60;;
17361;SDS011;8798;51.938;4.348;2023-04-25T00:54:31;7.33;;;1.63;;
17361;SDS011;8798;51.938;4.348;2023-04-25T00:56:59;6.43;;;1.70;;
17361;SDS011;8798;51.938;4.348;2023-04-25T00:59:29;10.63;;;2.03;;
17361;SDS011;8798;51.938;4.348;2023-04-25T01:01:58;10.40;;;1.80;;
17361;SDS011;8798;51.938;4.348;2023-04-25T01:04:27;10.33;;;1.97;;
17361;SDS011;8798;51.938;4.348;2023-04-25T01:07:04;3.57;;;1.47;;
17361;SDS011;8798;51.938;4.348;2023-04-25T01:09:33;6.90;;;1.80;;
17361;SDS011;8798;51.938;4.348;2023-04-25T01:12:01;10.17;;;2.20;;
17361;SDS011;8798;51.938;4.348;2023-04-25T01:14:29;10.00;;;2.17;;
17361;SDS011;8798;51.938;4.348;2023-04-25T01:16:57;6.07;;;1.50;;
17361;SDS011;8798;51.938;4.348;2023-04-25T01:19:25;8.70;;;1.77;;
17361;SDS011;8798;51.938;4.348;2023-04-25T01:22:03;8.10;;;1.70;;
17361;SDS011;8798;51.938;4.348;2023-04-25T01:24:32;8.83;;;1.47;;
17361;SDS011;8798;51.938;4.348;2023-04-25T01:27:01;6.83;;;1.83;;
17361;SDS011;8798;51.938;4.348;2023-04-25T01:29:34;7.77;;;1.70;;
17361;SDS011;8798;51.938;4.348;2023-04-25T01:32:05;11.00;;;1.90;;
17361;SDS011;8798;51.938;4.348;2023-04-25T01:34:45;4.23;;;1.50;;
17361;SDS011;8798;51.938;4.348;2023-04-25T01:37:19;7.43;;;1.80;;
17361;SDS011;8798;51.938;4.348;2023-04-25T01:39:47;6.07;;;1.50;;
17361;SDS011;8798;51.938;4.348;2023-04-25T01:42:17;11.00;;;2.07;;
17361;SDS011;8798;51.938;4.348;2023-04-25T01:44:50;8.70;;;1.50;;
17361;SDS011;8798;51.938;4.348;2023-04-25T01:47:19;5.40;;;1.60;;
17361;SDS011;8798;51.938;4.348;2023-04-25T01:49:48;4.37;;;1.40;;
17361;SDS011;8798;51.938;4.348;2023-04-25T01:52:22;5.90;;;1.77;;
17361;SDS011;8798;51.938;4.348;2023-04-25T01:54:49;8.57;;;1.80;;
17361;SDS011;8798;51.938;4.348;2023-04-25T01:57:19;5.57;;;1.40;;
17361;SDS011;8798;51.938;4.348;2023-04-25T01:59:49;7.47;;;1.90;;
17361;SDS011;8798;51.938;4.348;2023-04-25T02:02:19;6.53;;;1.43;;
17361;SDS011;8798;51.938;4.348;2023-04-25T02:04:53;8.80;;;1.40;;
17361;SDS011;8798;51.938;4.348;2023-04-25T02:07:25;6.40;;;1.40;;
17361;SDS011;8798;51.938;4.348;2023-04-25T02:09:58;6.63;;;1.83;;
17361;SDS011;8798;51.938;4.348;2023-04-25T02:12:31;8.67;;;1.90;;
17361;SDS011;8798;51.938;4.348;2023-04-25T02:14:59;6.83;;;1.70;;
17361;SDS011;8798;51.938;4.348;2023-04-25T02:17:29;7.03;;;1.70;;
17361;SDS011;8798;51.938;4.348;2023-04-25T02:19:59;5.47;;;1.63;;
17361;SDS011;8798;51.938;4.348;2023-04-25T02:22:31;5.10;;;1.57;;
17361;SDS011;8798;51.938;4.348;2023-04-25T02:25:01;12.03;;;2.20;;
17361;SDS011;8798;51.938;4.348;2023-04-25T02:27:31;5.40;;;1.43;;
17361;SDS011;8798;51.938;4.348;2023-04-25T02:29:59;3.47;;;1.40;;
17361;SDS011;8798;51.938;4.348;2023-04-25T02:32:27;5.13;;;1.53;;
17361;SDS011;8798;51.938;4.348;2023-04-25T02:34:59;3.37;;;1.10;;
17361;SDS011;8798;51.938;4.348;2023-04-25T02:37:33;4.93;;;1.20;;
17361;SDS011;8798;51.938;4.348;2023-04-25T02:40:09;2.93;;;1.40;;
17361;SDS011;8798;51.938;4.348;2023-04-25T02:42:40;10.03;;;2.20;;
17361;SDS011;8798;51.938;4.348;2023-04-25T02:45:10;5.97;;;1.57;;
17361;SDS011;8798;51.938;4.348;2023-04-25T02:47:41;11.07;;;1.53;;
17361;SDS011;8798;51.938;4.348;2023-04-25T02:50:09;10.47;;;1.77;;
17361;SDS011;8798;51.938;4.348;2023-04-25T02:52:42;10.93;;;1.87;;
17361;SDS011;8798;51.938;4.348;2023-04-25T02:55:12;4.47;;;1.40;;
17361;SDS011;8798;51.938;4.348;2023-04-25T02:57:40;8.50;;;1.87;;
17361;SDS011;8798;51.938;4.348;2023-04-25T03:00:10;7.43;;;1.63;;
17361;SDS011;8798;51.938;4.348;2023-04-25T03:02:41;3.97;;;1.57;;
17361;SDS011;8798;51.938;4.348;2023-04-25T03:05:09;7.77;;;1.67;;
17361;SDS011;8798;51.938;4.348;2023-04-25T03:07:43;7.60;;;1.73;;
17361;SDS011;8798;51.938;4.348;2023-04-25T03:10:18;8.27;;;1.50;;
17361;SDS011;8798;51.938;4.348;2023-04-25T03:12:48;4.70;;;1.60;;
17361;SDS011;8798;51.938;4.348;2023-04-25T03:15:19;6.47;;;1.70;;
17361;SDS011;8798;51.938;4.348;2023-04-25T03:17:51;5.83;;;1.60;;
17361;SDS011;8798;51.938;4.348;2023-04-25T03:20:22;4.10;;;1.10;;
17361;SDS011;8798;51.938;4.348;2023-04-25T03:22:53;4.27;;;1.53;;
17361;SDS011;8798;51.938;4.348;2023-04-25T03:25:21;5.80;;;1.40;;
17361;SDS011;8798;51.938;4.348;2023-04-25T03:27:49;6.37;;;1.33;;
17361;SDS011;8798;51.938;4.348;2023-04-25T03:30:17;9.30;;;1.27;;
17361;SDS011;8798;51.938;4.348;2023-04-25T03:33:01;3.23;;;1.13;;
17361;SDS011;8798;51.938;4.348;2023-04-25T03:35:31;7.33;;;1.40;;
17361;SDS011;8798;51.938;4.348;2023-04-25T03:38:02;4.00;;;1.00;;
17361;SDS011;8798;51.938;4.348;2023-04-25T03:40:31;5.90;;;1.20;;
17361;SDS011;8798;51.938;4.348;2023-04-25T03:43:02;4.23;;;1.20;;
17361;SDS011;8798;51.938;4.348;2023-04-25T03:45:31;4.67;;;1.13;;
17361;SDS011;8798;51.938;4.348;2023-04-25T03:48:01;3.30;;;1.10;;
17361;SDS011;8798;51.938;4.348;2023-04-25T03:50:29;2.83;;;0.90;;
17361;SDS011;8798;51.938;4.348;2023-04-25T03:52:57;7.37;;;1.50;;
17361;SDS011;8798;51.938;4.348;2023-04-25T03:55:29;6.10;;;1.43;;
17361;SDS011;8798;51.938;4.348;2023-04-25T03:57:59;2.60;;;1.00;;
17361;SDS011;8798;51.938;4.348;2023-04-25T04:00:28;5.87;;;1.20;;
17361;SDS011;8798;51.938;4.348;2023-04-25T04:02:59;4.43;;;1.00;;
17361;SDS011;8798;51.938;4.348;2023-04-25T04:05:28;6.10;;;1.40;;
17361;SDS011;8798;51.938;4.348;2023-04-25T04:07:59;5.47;;;1.20;;
17361;SDS011;8798;51.938;4.348;2023-04-25T04:10:31;5.67;;;1.10;;
17361;SDS011;8798;51.938;4.348;2023-04-25T04:13:02;2.60;;;1.00;;
17361;SDS011;8798;51.938;4.348;2023-04-25T04:15:30;3.57;;;1.20;;
17361;SDS011;8798;51.938;4.348;2023-04-25T04:18:02;2.33;;;1.07;;
17361;SDS011;8798;51.938;4.348;2023-04-25T04:20:31;7.00;;;1.23;;
17361;SDS011;8798;51.938;4.348;2023-04-25T04:22:59;2.53;;;1.13;;
17361;SDS011;8798;51.938;4.348;2023-04-25T04:25:28;6.23;;;1.60;;
17361;SDS011;8798;51.938;4.348;2023-04-25T04:28:03;3.93;;;0.90;;
17361;SDS011;8798;51.938;4.348;2023-04-25T04:30:31;3.80;;;0.97;;
17361;SDS011;8798;51.938;4.348;2023-04-25T04:33:02;4.60;;;1.07;;
17361;SDS011;8798;51.938;4.348;2023-04-25T04:35:33;3.67;;;1.03;;
17361;SDS011;8798;51.938;4.348;2023-04-25T04:38:01;4.53;;;1.17;;
17361;SDS011;8798;51.938;4.348;2023-04-25T04:40:30;4.03;;;0.97;;
17361;SDS011;8798;51.938;4.348;2023-04-25T04:43:03;5.43;;;1.53;;
17361;SDS011;8798;51.938;4.348;2023-04-25T04:45:30;2.87;;;1.00;;
17361;SDS011;8798;51.938;4.348;2023-04-25T04:48:00;3.57;;;1.37;;
17361;SDS011;8798;51.938;4.348;2023-04-25T04:50:29;6.33;;;1.80;;
17361;SDS011;8798;51.938;4.348;2023-04-25T04:53:01;4.10;;;1.10;;
17361;SDS011;8798;51.938;4.348;2023-04-25T04:55:31;4.20;;;1.37;;
17361;SDS011;8798;51.938;4.348;2023-04-25T04:58:00;3.53;;;1.20;;
17361;SDS011;8798;51.938;4.348;2023-04-25T05:00:32;4.07;;;1.10;;
17361;SDS011;8798;51.938;4.348;2023-04-25T05:03:01;6.73;;;1.40;;
17361;SDS011;8798;51.938;4.348;2023-04-25T05:05:29;4.43;;;1.27;;
17361;SDS011;8798;51.938;4.348;2023-04-25T05:07:57;4.17;;;1.37;;
17361;SDS011;8798;51.938;4.348;2023-04-25T05:10:25;9.43;;;1.30;;
17361;SDS011;8798;51.938;4.348;2023-04-25T05:12:55;10.87;;;1.43;;
17361;SDS011;8798;51.938;4.348;2023-04-25T05:15:33;4.23;;;0.90;;
17361;SDS011;8798;51.938;4.348;2023-04-25T05:18:04;6.00;;;1.20;;
17361;SDS011;8798;51.938;4.348;2023-04-25T05:20:32;7.73;;;1.40;;
17361;SDS011;8798;51.938;4.348;2023-04-25T05:23:00;3.40;;;0.83;;
17361;SDS011;8798;51.938;4.348;2023-04-25T05:25:30;6.50;;;1.30;;
17361;SDS011;8798;51.938;4.348;2023-04-25T05:27:58;3.67;;;1.10;;
17361;SDS011;8798;51.938;4.348;2023-04-25T05:30:33;5.30;;;1.20;;
17361;SDS011;8798;51.938;4.348;2023-04-25T05:33:01;8.90;;;1.90;;
17361;SDS011;8798;51.938;4.348;2023-04-25T05:35:30;6.43;;;1.13;;
17361;SDS011;8798;51.938;4.348;2023-04-25T05:37:59;4.97;;;0.87;;
17361;SDS011;8798;51.938;4.348;2023-04-25T05:40:32;6.33;;;1.20;;
17361;SDS011;8798;51.938;4.348;2023-04-25T05:43:01;6.87;;;0.97;;
17361;SDS011;8798;51.938;4.348;2023-04-25T05:45:29;6.43;;;1.10;;
17361;SDS011;8798;51.938;4.348;2023-04-25T05:48:01;3.23;;;0.83;;
17361;SDS011;8798;51.938;4.348;2023-04-25T05:50:30;2.43;;;0.90;;
17361;SDS011;8798;51.938;4.348;2023-04-25T05:53:01;4.37;;;0.80;;
17361;SDS011;8798;51.938;4.348;2023-04-25T05:55:33;4.77;;;0.90;;
17361;SDS011;8798;51.938;4.348;2023-04-25T05:58:01;5.67;;;1.07;;
17361;SDS011;8798;51.938;4.348;2023-04-25T06:00:29;3.00;;;0.73;;
17361;SDS011;8798;51.938;4.348;2023-04-25T06:03:01;5.50;;;1.00;;
17361;SDS011;8798;51.938;4.348;2023-04-25T06:05:30;2.97;;;0.70;;
17361;SDS011;8798;51.938;4.348;2023-04-25T06:08:04;8.73;;;1.00;;
17361;SDS011;8798;51.938;4.348;2023-04-25T06:10:40;2.57;;;0.90;;
17361;SDS011;8798;51.938;4.348;2023-04-25T06:13:11;2.37;;;0.70;;
17361;SDS011;8798;51.938;4.348;2023-04-25T06:15:39;3.50;;;0.83;;
17361;SDS011;8798;51.938;4.348;2023-04-25T06:18:11;3.17;;;1.00;;
17361;SDS011;8798;51.938;4.348;2023-04-25T06:20:40;2.97;;;1.00;;
17361;SDS011;8798;51.938;4.348;2023-04-25T06:23:09;5.80;;;1.17;;
17361;SDS011;8798;51.938;4.348;2023-04-25T06:25:39;5.50;;;0.90;;
17361;SDS011;8798;51.938;4.348;2023-04-25T06:28:07;4.60;;;1.13;;
17361;SDS011;8798;51.938;4.348;2023-04-25T06:30:35;4.80;;;0.80;;
17361;SDS011;8798;51.938;4.348;2023-04-25T06:33:10;4.13;;;1.10;;
17361;SDS011;8798;51.938;4.348;2023-04-25T06:35:43;3.83;;;0.90;;
17361;SDS011;8798;51.938;4.348;2023-04-25T06:38:11;3.50;;;0.67;;
17361;SDS011;8798;51.938;4.348;2023-04-25T06:40:40;2.23;;;0.70;;
17361;SDS011;8798;51.938;4.348;2023-04-25T06:43:10;3.87;;;0.93;;
17361;SDS011;8798;51.938;4.348;2023-04-25T06:45:42;4.43;;;0.80;;
17361;SDS011;8798;51.938;4.348;2023-04-25T06:48:14;1.83;;;0.93;;
17361;SDS011;8798;51.938;4.348;2023-04-25T06:50:43;2.97;;;0.90;;
17361;SDS011;8798;51.938;4.348;2023-04-25T06:53:14;3.13;;;0.93;;
17361;SDS011;8798;51.938;4.348;2023-04-25T06:55:42;3.40;;;0.97;;
17361;SDS011;8798;51.938;4.348;2023-04-25T06:58:10;4.63;;;1.00;;
17361;SDS011;8798;51.938;4.348;2023-04-25T07:00:40;5.63;;;1.17;;
17361;SDS011;8798;51.938;4.348;2023-04-25T07:03:11;6.03;;;1.50;;
17361;SDS011;8798;51.938;4.348;2023-04-25T07:05:42;3.30;;;0.97;;
17361;SDS011;8798;51.938;4.348;2023-04-25T07:08:11;5.03;;;1.03;;
17361;SDS011;8798;51.938;4.348;2023-04-25T07:10:40;1.97;;;0.90;;
17361;SDS011;8798;51.938;4.348;2023-04-25T07:13:10;5.10;;;1.20;;
17361;SDS011;8798;51.938;4.348;2023-04-25T07:15:40;7.37;;;1.10;;
17361;SDS011;8798;51.938;4.348;2023-04-25T07:18:10;4.90;;;0.73;;
17361;SDS011;8798;51.938;4.348;2023-04-25T07:23:23;2.53;;;0.90;;
17361;SDS011;8798;51.938;4.348;2023-04-25T07:25:52;2.57;;;0.90;;
17361;SDS011;8798;51.938;4.348;2023-04-25T07:28:20;1.40;;;0.43;;
17361;SDS011;8798;51.938;4.348;2023-04-25T07:30:52;2.77;;;0.70;;
17361;SDS011;8798;51.938;4.348;2023-04-25T07:33:20;2.33;;;0.70;;
17361;SDS011;8798;51.938;4.348;2023-04-25T07:35:50;2.87;;;0.77;;
17361;SDS011;8798;51.938;4.348;2023-04-25T07:38:22;1.93;;;0.60;;
17361;SDS011;8798;51.938;4.348;2023-04-25T07:40:50;2.67;;;0.67;;
17361;SDS011;8798;51.938;4.348;2023-04-25T07:43:18;4.57;;;0.70;;
17361;SDS011;8798;51.938;4.348;2023-04-25T07:45:50;3.10;;;0.70;;
17361;SDS011;8798;51.938;4.348;2023-04-25T07:48:20;1.60;;;0.70;;
17361;SDS011;8798;51.938;4.348;2023-04-25T07:50:48;4.83;;;0.73;;
17361;SDS011;8798;51.938;4.348;2023-04-25T07:53:23;2.87;;;0.67;;
17361;SDS011;8798;51.938;4.348;2023-04-25T07:55:52;4.43;;;0.60;;
17361;SDS011;8798;51.938;4.348;2023-04-25T07:58:20;3.80;;;0.80;;
17361;SDS011;8798;51.938;4.348;2023-04-25T08:00:48;3.70;;;0.70;;
17361;SDS011;8798;51.938;4.348;2023-04-25T08:03:20;3.13;;;0.90;;
17361;SDS011;8798;51.938;4.348;2023-04-25T08:05:50;2.77;;;0.83;;
17361;SDS011;8798;51.938;4.348;2023-04-25T08:08:21;2.50;;;0.60;;
17361;SDS011;8798;51.938;4.348;2023-04-25T08:10:53;3.07;;;0.40;;
17361;SDS011;8798;51.938;4.348;2023-04-25T08:13:21;3.30;;;0.83;;
17361;SDS011;8798;51.938;4.348;2023-04-25T08:15:51;1.43;;;0.60;;
17361;SDS011;8798;51.938;4.348;2023-04-25T08:18:21;3.40;;;0.70;;
17361;SDS011;8798;51.938;4.348;2023-04-25T08:20:51;2.20;;;0.53;;
17361;SDS011;8798;51.938;4.348;2023-04-25T08:23:20;1.13;;;0.57;;
17361;SDS011;8798;51.938;4.348;2023-04-25T08:25:52;1.57;;;0.60;;
17361;SDS011;8798;51.938;4.348;2023-04-25T08:28:20;3.13;;;0.40;;
17361;SDS011;8798;51.938;4.348;2023-04-25T08:30:55;3.07;;;0.60;;
17361;SDS011;8798;51.938;4.348;2023-04-25T08:33:30;6.63;;;1.00;;
17361;SDS011;8798;51.938;4.348;2023-04-25T08:35:59;2.00;;;0.43;;
17361;SDS011;8798;51.938;4.348;2023-04-25T08:38:28;1.63;;;0.80;;
17361;SDS011;8798;51.938;4.348;2023-04-25T08:41:03;6.83;;;1.00;;
17361;SDS011;8798;51.938;4.348;2023-04-25T08:43:37;1.20;;;0.50;;
17361;SDS011;8798;51.938;4.348;2023-04-25T08:46:10;2.40;;;0.60;;
17361;SDS011;8798;51.938;4.348;2023-04-25T08:48:42;2.60;;;0.50;;
17361;SDS011;8798;51.938;4.348;2023-04-25T08:51:14;4.20;;;0.67;;
17361;SDS011;8798;51.938;4.348;2023-04-25T08:53:51;2.70;;;0.60;;
17361;SDS011;8798;51.938;4.348;2023-04-25T08:56:27;0.97;;;0.60;;
17361;SDS011;8798;51.938;4.348;2023-04-25T08:58:56;2.40;;;0.90;;
17361;SDS011;8798;51.938;4.348;2023-04-25T09:01:28;0.87;;;0.50;;
17361;SDS011;8798;51.938;4.348;2023-04-25T09:04:02;3.73;;;0.60;;
17361;SDS011;8798;51.938;4.348;2023-04-25T09:06:32;3.03;;;0.83;;
17361;SDS011;8798;51.938;4.348;2023-04-25T09:09:01;3.17;;;0.53;;
17361;SDS011;8798;51.938;4.348;2023-04-25T09:11:34;3.20;;;1.00;;
17361;SDS011;8798;51.938;4.348;2023-04-25T09:14:11;2.67;;;0.70;;
17361;SDS011;8798;51.938;4.348;2023-04-25T09:19:28;4.43;;;0.70;;
17361;SDS011;8798;51.938;4.348;2023-04-25T09:22:03;3.90;;;0.90;;
17361;SDS011;8798;51.938;4.348;2023-04-25T09:24:33;4.40;;;0.77;;
17361;SDS011;8798;51.938;4.348;2023-04-25T09:27:05;2.23;;;0.70;;
17361;SDS011;8798;51.938;4.348;2023-04-25T09:29:36;2.23;;;0.70;;
17361;SDS011;8798;51.938;4.348;2023-04-25T09:32:15;3.40;;;0.60;;
17361;SDS011;8798;51.938;4.348;2023-04-25T09:34:45;3.10;;;1.00;;
17361;SDS011;8798;51.938;4.348;2023-04-25T09:37:22;2.40;;;0.60;;
17361;SDS011;8798;51.938;4.348;2023-04-25T09:39:52;2.40;;;0.50;;
17361;SDS011;8798;51.938;4.348;2023-04-25T09:42:24;2.70;;;0.57;;
17361;SDS011;8798;51.938;4.348;2023-04-25T09:44:58;1.77;;;0.77;;
17361;SDS011;8798;51.938;4.348;2023-04-25T09:47:36;2.57;;;0.83;;
17361;SDS011;8798;51.938;4.348;2023-04-25T09:50:13;3.23;;;0.60;;
17361;SDS011;8798;51.938;4.348;2023-04-25T09:52:43;3.57;;;1.03;;
17361;SDS011;8798;51.938;4.348;2023-04-25T09:55:12;1.83;;;0.60;;
17361;SDS011;8798;51.938;4.348;2023-04-25T09:57:41;3.73;;;0.90;;
17361;SDS011;8798;51.938;4.348;2023-04-25T10:00:12;4.20;;;0.80;;
17361;SDS011;8798;51.938;4.348;2023-04-25T10:02:42;3.10;;;0.60;;
17361;SDS011;8798;51.938;4.348;2023-04-25T10:05:12;3.17;;;0.90;;
17361;SDS011;8798;51.938;4.348;2023-04-25T10:07:41;1.90;;;0.87;;
17361;SDS011;8798;51.938;4.348;2023-04-25T10:10:11;2.00;;;0.70;;
17361;SDS011;8798;51.938;4.348;2023-04-25T10:12:42;3.47;;;0.60;;
17361;SDS011;8798;51.938;4.348;2023-04-25T10:15:12;2.10;;;0.90;;
17361;SDS011;8798;51.938;4.348;2023-04-25T10:17:42;4.10;;;0.83;;
17361;SDS011;8798;51.938;4.348;2023-04-25T10:20:11;3.23;;;0.97;;
17361;SDS011;8798;51.938;4.348;2023-04-25T10:22:41;5.80;;;0.93;;
17361;SDS011;8798;51.938;4.348;2023-04-25T10:25:12;2.27;;;0.53;;
17361;SDS011;8798;51.938;4.348;2023-04-25T10:27:43;2.07;;;0.60;;
17361;SDS011;8798;51.938;4.348;2023-04-25T10:30:13;1.70;;;0.60;;
17361;SDS011;8798;51.938;4.348;2023-04-25T10:32:42;3.50;;;0.60;;
17361;SDS011;8798;51.938;4.348;2023-04-25T10:35:12;3.93;;;0.90;;
17361;SDS011;8798;51.938;4.348;2023-04-25T10:40:40;1.67;;;0.83;;
17361;SDS011;8798;51.938;4.348;2023-04-25T10:46:19;2.40;;;0.80;;
17361;SDS011;8798;51.938;4.348;2023-04-25T10:49:02;4.07;;;0.80;;
17361;SDS011;8798;51.938;4.348;2023-04-25T10:51:31;4.17;;;1.00;;
17361;SDS011;8798;51.938;4.348;2023-04-25T10:54:21;2.10;;;0.70;;
17361;SDS011;8798;51.938;4.348;2023-04-25T10:56:52;0.77;;;0.40;;
17361;SDS011;8798;51.938;4.348;2023-04-25T10:59:22;4.23;;;0.80;;
17361;SDS011;8798;51.938;4.348;2023-04-25T11:01:52;3.23;;;1.00;;
17361;SDS011;8798;51.938;4.348;2023-04-25T11:04:21;3.30;;;0.93;;
17361;SDS011;8798;51.938;4.348;2023-04-25T11:07:02;2.37;;;0.70;;
17361;SDS011;8798;51.938;4.348;2023-04-25T11:09:42;1.47;;;0.70;;
17361;SDS011;8798;51.938;4.348;2023-04-25T11:12:18;3.70;;;0.80;;
17361;SDS011;8798;51.938;4.348;2023-04-25T11:15:04;2.70;;;0.90;;
17361;SDS011;8798;51.938;4.348;2023-04-25T11:17:39;3.27;;;0.90;;
17361;SDS011;8798;51.938;4.348;2023-04-25T11:20:14;8.57;;;1.07;;
17361;SDS011;8798;51.938;4.348;2023-04-25T11:22:44;3.77;;;0.97;;
17361;SDS011;8798;51.938;4.348;2023-04-25T11:25:12;2.97;;;0.80;;
17361;SDS011;8798;51.938;4.348;2023-04-25T11:27:51;2.50;;;0.70;;
17361;SDS011;8798;51.938;4.348;2023-04-25T11:30:24;4.57;;;0.83;;
17361;SDS011;8798;51.938;4.348;2023-04-25T11:32:58;2.03;;;0.60;;
17361;SDS011;8798;51.938;4.348;2023-04-25T11:35:31;2.87;;;0.60;;
17361;SDS011;8798;51.938;4.348;2023-04-25T11:38:02;1.67;;;0.70;;
17361;SDS011;8798;51.938;4.348;2023-04-25T11:40:30;4.63;;;0.83;;
17361;SDS011;8798;51.938;4.348;2023-04-25T11:43:01;11.90;;;1.03;;
17361;SDS011;8798;51.938;4.348;2023-04-25T11:45:42;4.73;;;0.80;;
17361;SDS011;8798;51.938;4.348;2023-04-25T11:48:15;4.23;;;0.70;;
17361;SDS011;8798;51.938;4.348;2023-04-25T11:51:06;2.73;;;0.50;;
17361;SDS011;8798;51.938;4.348;2023-04-25T11:53:41;3.40;;;0.83;;
17361;SDS011;8798;51.938;4.348;2023-04-25T11:56:12;5.97;;;1.27;;
17361;SDS011;8798;51.938;4.348;2023-04-25T12:01:33;2.13;;;0.70;;
17361;SDS011;8798;51.938;4.348;2023-04-25T12:04:13;3.90;;;0.70;;
17361;SDS011;8798;51.938;4.348;2023-04-25T12:06:43;1.20;;;0.63;;
17361;SDS011;8798;51.938;4.348;2023-04-25T12:09:15;2.50;;;0.60;;
17361;SDS011;8798;51.938;4.348;2023-04-25T12:11:53;1.73;;;0.70;;
17361;SDS011;8798;51.938;4.348;2023-04-25T12:14:24;2.33;;;0.70;;
17361;SDS011;8798;51.938;4.348;2023-04-25T12:16:56;4.13;;;0.97;;
17361;SDS011;8798;51.938;4.348;2023-04-25T12:19:33;3.17;;;0.73;;
17361;SDS011;8798;51.938;4.348;2023-04-25T12:22:01;4.10;;;0.90;;
17361;SDS011;8798;51.938;4.348;2023-04-25T12:24:32;4.80;;;0.83;;
17361;SDS011;8798;51.938;4.348;2023-04-25T12:27:06;4.57;;;0.80;;
17361;SDS011;8798;51.938;4.348;2023-04-25T12:29:38;5.20;;;1.00;;
17361;SDS011;8798;51.938;4.348;2023-04-25T12:32:17;3.53;;;0.70;;
17361;SDS011;8798;51.938;4.348;2023-04-25T12:34:52;2.03;;;0.60;;
17361;SDS011;8798;51.938;4.348;2023-04-25T12:37:20;3.67;;;0.70;;
17361;SDS011;8798;51.938;4.348;2023-04-25T12:39:49;4.23;;;0.70;;
17361;SDS011;8798;51.938;4.348;2023-04-25T12:42:22;3.83;;;0.50;;
17361;SDS011;8798;51.938;4.348;2023-04-25T12:44:51;4.83;;;0.90;;
17361;SDS011;8798;51.938;4.348;2023-04-25T12:47:24;3.43;;;0.70;;
17361;SDS011;8798;51.938;4.348;2023-04-25T12:49:52;6.43;;;0.90;;
17361;SDS011;8798;51.938;4.348;2023-04-25T12:52:23;4.37;;;0.70;;
17361;SDS011;8798;51.938;4.348;2023-04-25T12:54:52;2.73;;;0.50;;
17361;SDS011;8798;51.938;4.348;2023-04-25T12:57:20;2.80;;;0.63;;
17361;SDS011;8798;51.938;4.348;2023-04-25T12:59:49;2.33;;;0.40;;
17361;SDS011;8798;51.938;4.348;2023-04-25T13:02:20;2.20;;;0.70;;
17361;SDS011;8798;51.938;4.348;2023-04-25T13:04:55;3.30;;;0.60;;
17361;SDS011;8798;51.938;4.348;2023-04-25T13:07:24;2.10;;;0.50;;
17361;SDS011;8798;51.938;4.348;2023-04-25T13:09:52;6.27;;;1.00;;
17361;SDS011;8798;51.938;4.348;2023-04-25T13:12:20;4.93;;;0.83;;
17361;SDS011;8798;51.938;4.348;2023-04-25T13:14:48;5.23;;;0.70;;
17361;SDS011;8798;51.938;4.348;2023-04-25T13:17:16;3.17;;;0.50;;
17361;SDS011;8798;51.938;4.348;2023-04-25T13:19:54;5.40;;;0.80;;
17361;SDS011;8798;51.938;4.348;2023-04-25T13:22:22;1.50;;;0.67;;
17361;SDS011;8798;51.938;4.348;2023-04-25T13:24:51;4.30;;;0.80;;
17361;SDS011;8798;51.938;4.348;2023-04-25T13:27:21;3.30;;;0.60;;
17361;SDS011;8798;51.938;4.348;2023-04-25T13:29:51;4.23;;;0.80;;
17361;SDS011;8798;51.938;4.348;2023-04-25T13:32:23;4.33;;;0.97;;
17361;SDS011;8798;51.938;4.348;2023-04-25T13:34:51;3.90;;;0.73;;
17361;SDS011;8798;51.938;4.348;2023-04-25T13:37:32;2.90;;;0.80;;
17361;SDS011;8798;51.938;4.348;2023-04-25T13:40:01;1.80;;;0.60;;
17361;SDS011;8798;51.938;4.348;2023-04-25T13:42:33;3.87;;;0.93;;
17361;SDS011;8798;51.938;4.348;2023-04-25T13:45:01;4.87;;;0.90;;
17361;SDS011;8798;51.938;4.348;2023-04-25T13:47:29;2.93;;;0.90;;
17361;SDS011;8798;51.938;4.348;2023-04-25T13:50:04;4.10;;;0.80;;
17361;SDS011;8798;51.938;4.348;2023-04-25T13:52:43;2.77;;;0.90;;
17361;SDS011;8798;51.938;4.348;2023-04-25T13:55:11;3.87;;;0.80;;
17361;SDS011;8798;51.938;4.348;2023-04-25T13:57:39;5.13;;;0.97;;
17361;SDS011;8798;51.938;4.348;2023-04-25T14:00:12;2.30;;;0.60;;
17361;SDS011;8798;51.938;4.348;2023-04-25T14:02:42;3.43;;;0.87;;
17361;SDS011;8798;51.938;4.348;2023-04-25T14:05:14;3.90;;;0.77;;
17361;SDS011;8798;51.938;4.348;2023-04-25T14:07:42;3.50;;;0.83;;
17361;SDS011;8798;51.938;4.348;2023-04-25T14:10:11;4.67;;;0.80;;
17361;SDS011;8798;51.938;4.348;2023-04-25T14:12:43;3.43;;;0.80;;
17361;SDS011;8798;51.938;4.348;2023-04-25T14:15:12;3.57;;;1.00;;
17361;SDS011;8798;51.938;4.348;2023-04-25T14:17:41;4.27;;;1.00;;
17361;SDS011;8798;51.938;4.348;2023-04-25T14:20:11;10.57;;;1.30;;
17361;SDS011;8798;51.938;4.348;2023-04-25T14:22:42;1.53;;;0.80;;
17361;SDS011;8798;51.938;4.348;2023-04-25T14:25:13;1.80;;;0.67;;
17361;SDS011;8798;51.938;4.348;2023-04-25T14:27:46;4.67;;;0.70;;
17361;SDS011;8798;51.938;4.348;2023-04-25T14:30:17;1.93;;;0.70;;
17361;SDS011;8798;51.938;4.348;2023-04-25T14:32:51;2.03;;;0.67;;
17361;SDS011;8798;51.938;4.348;2023-04-25T14:35:23;2.00;;;0.50;;
17361;SDS011;8798;51.938;4.348;2023-04-25T14:37:51;2.63;;;0.60;;
17361;SDS011;8798;51.938;4.348;2023-04-25T14:40:21;2.63;;;0.80;;
17361;SDS011;8798;51.938;4.348;2023-04-25T14:42:49;1.60;;;0.93;;
17361;SDS011;8798;51.938;4.348;2023-04-25T14:45:19;3.57;;;0.77;;
17361;SDS011;8798;51.938;4.348;2023-04-25T14:47:50;1.03;;;0.60;;
17361;SDS011;8798;51.938;4.348;2023-04-25T14:50:19;3.93;;;0.90;;
17361;SDS011;8798;51.938;4.348;2023-04-25T14:52:53;4.70;;;0.87;;
17361;SDS011;8798;51.938;4.348;2023-04-25T14:55:29;3.27;;;0.90;;
17361;SDS011;8798;51.938;4.348;2023-04-25T14:57:57;5.63;;;1.00;;
17361;SDS011;8798;51.938;4.348;2023-04-25T15:00:33;4.03;;;0.83;;
17361;SDS011;8798;51.938;4.348;2023-04-25T15:03:03;2.47;;;0.90;;
17361;SDS011;8798;51.938;4.348;2023-04-25T15:05:32;3.07;;;1.00;;
17361;SDS011;8798;51.938;4.348;2023-04-25T15:08:04;2.57;;;0.87;;
17361;SDS011;8798;51.938;4.348;2023-04-25T15:10:32;3.33;;;0.90;;
17361;SDS011;8798;51.938;4.348;2023-04-25T15:12:59;1.90;;;0.83;;
17361;SDS011;8798;51.938;4.348;2023-04-25T15:15:31;5.47;;;1.03;;
17361;SDS011;8798;51.938;4.348;2023-04-25T15:18:03;5.57;;;1.00;;
17361;SDS011;8798;51.938;4.348;2023-04-25T15:20:31;6.10;;;1.53;;
17361;SDS011;8798;51.938;4.348;2023-04-25T15:23:01;5.27;;;1.43;;
17361;SDS011;8798;51.938;4.348;2023-04-25T15:25:33;2.77;;;0.80;;
17361;SDS011;8798;51.938;4.348;2023-04-25T15:28:01;3.30;;;0.93;;
17361;SDS011;8798;51.938;4.348;2023-04-25T15:30:33;3.93;;;0.87;;
17361;SDS011;8798;51.938;4.348;2023-04-25T15:33:01;4.10;;;0.97;;
17361;SDS011;8798;51.938;4.348;2023-04-25T15:35:33;2.30;;;0.93;;
17361;SDS011;8798;51.938;4.348;2023-04-25T15:38:01;2.33;;;0.73;;